createdAt,value
2018-12-29T00:00:26.058Z,1027.11
2018-12-29T00:01:26.049Z,1027.06
2018-12-29T00:02:26.036Z,1027.11
2018-12-29T00:03:26.876Z,1027.12
2018-12-29T00:04:26.059Z,1027.14
2018-12-29T00:05:26.009Z,1027.13
2018-12-29T00:06:26.005Z,1027.15
2018-12-29T00:07:25.979Z,1027.20
2018-12-29T00:08:26.873Z,1027.17
2018-12-29T00:09:25.974Z,1027.27
2018-12-29T00:10:25.950Z,1027.28
2018-12-29T00:11:25.949Z,1027.23
2018-12-29T00:12:26.876Z,1027.19
2018-12-29T00:13:25.918Z,1027.15
2018-12-29T00:14:25.910Z,1027.18
2018-12-29T00:15:25.973Z,1027.19
2018-12-29T00:16:25.914Z,1027.20
2018-12-29T00:17:25.872Z,1027.18
2018-12-29T00:18:25.859Z,1027.17
2018-12-29T00:19:25.860Z,1027.14
2018-12-29T00:20:25.882Z,1027.16
2018-12-29T00:21:25.827Z,1027.16
2018-12-29T00:22:25.830Z,1027.13
2018-12-29T00:23:25.813Z,1027.16
2018-12-29T00:24:25.794Z,1027.12
2018-12-29T00:25:25.877Z,1027.15
2018-12-29T00:26:26.406Z,1027.15
2018-12-29T00:27:26.374Z,1027.11
2018-12-29T00:28:26.385Z,1027.19
2018-12-29T00:29:25.741Z,1027.21
2018-12-29T00:30:25.739Z,1027.15
2018-12-29T00:31:26.371Z,1027.19
2018-12-29T00:32:25.706Z,1027.16
2018-12-29T00:33:25.712Z,1027.18
2018-12-29T00:34:25.696Z,1027.13
2018-12-29T00:35:25.883Z,1027.15
2018-12-29T00:36:25.667Z,1027.16
2018-12-29T00:37:25.655Z,1027.18
2018-12-29T00:38:25.658Z,1027.18
2018-12-29T00:39:26.399Z,1027.13
2018-12-29T00:40:25.891Z,1027.14
2018-12-29T00:41:25.606Z,1027.15
2018-12-29T00:42:25.595Z,1027.09
2018-12-29T00:43:25.595Z,1027.07
2018-12-29T00:44:25.652Z,1027.12
2018-12-29T00:45:25.576Z,1027.14
2018-12-29T00:46:25.554Z,1027.15
2018-12-29T00:47:26.371Z,1027.23
2018-12-29T00:48:26.376Z,1027.20
2018-12-29T00:49:26.374Z,1027.26
2018-12-29T00:50:25.889Z,1027.22
2018-12-29T00:51:25.497Z,1027.28
2018-12-29T00:52:25.487Z,1027.27
2018-12-29T00:53:26.375Z,1027.28
2018-12-29T00:54:26.479Z,1027.29
2018-12-29T00:55:25.886Z,1027.24
2018-12-29T00:56:25.441Z,1027.31
2018-12-29T00:57:25.447Z,1027.31
2018-12-29T00:58:25.419Z,1027.29
2018-12-29T00:59:25.411Z,1027.31
2018-12-29T01:00:25.430Z,1027.30
2018-12-29T01:01:25.384Z,1027.27
2018-12-29T01:02:25.373Z,1027.27
2018-12-29T01:03:25.870Z,1027.24
2018-12-29T01:04:25.356Z,1027.15
2018-12-29T01:05:25.875Z,1027.22
2018-12-29T01:06:25.346Z,1027.22
2018-12-29T01:07:25.874Z,1027.19
2018-12-29T01:08:25.309Z,1027.22
2018-12-29T01:09:25.300Z,1027.17
2018-12-29T01:10:25.293Z,1027.17
2018-12-29T01:11:25.353Z,1027.13
2018-12-29T01:12:25.296Z,1027.14
2018-12-29T01:13:25.258Z,1027.13
2018-12-29T01:14:25.243Z,1027.15
2018-12-29T01:15:25.230Z,1027.12
2018-12-29T01:16:25.247Z,1027.07
2018-12-29T01:17:25.235Z,1027.09
2018-12-29T01:18:25.196Z,1027.15
2018-12-29T01:19:25.204Z,1027.16
2018-12-29T01:20:25.175Z,1027.21
2018-12-29T01:21:25.212Z,1027.23
2018-12-29T01:22:25.888Z,1027.18
2018-12-29T01:23:25.160Z,1027.15
2018-12-29T01:24:25.153Z,1027.17
2018-12-29T01:25:25.887Z,1027.16
2018-12-29T01:26:25.148Z,1027.14
2018-12-29T01:27:25.113Z,1027.16
2018-12-29T01:28:25.178Z,1027.14
2018-12-29T01:29:25.079Z,1027.13
2018-12-29T01:30:25.872Z,1027.11
2018-12-29T01:31:25.067Z,1027.20
2018-12-29T01:32:25.893Z,1027.10
2018-12-29T01:33:25.038Z,1027.16
2018-12-29T01:34:25.034Z,1027.16
2018-12-29T01:35:25.014Z,1027.13
2018-12-29T01:36:25.385Z,1027.12
2018-12-29T01:37:25.010Z,1027.09
2018-12-29T01:38:25.877Z,1027.14
2018-12-29T01:39:25.874Z,1027.11
2018-12-29T01:40:24.959Z,1027.15
2018-12-29T01:41:24.961Z,1027.17
2018-12-29T01:42:24.949Z,1027.16
2018-12-29T01:43:24.925Z,1027.22
2018-12-29T01:44:25.876Z,1027.20
2018-12-29T01:45:25.896Z,1027.14
2018-12-29T01:46:24.924Z,1027.20
2018-12-29T01:47:24.895Z,1027.10
2018-12-29T01:48:24.872Z,1027.19
2018-12-29T01:49:25.380Z,1027.14
2018-12-29T01:50:24.851Z,1027.23
2018-12-29T01:51:24.838Z,1027.12
2018-12-29T01:52:24.897Z,1027.17
2018-12-29T01:53:24.818Z,1027.11
2018-12-29T01:54:24.800Z,1027.14
2018-12-29T01:55:24.788Z,1027.13
2018-12-29T01:56:24.783Z,1027.07
2018-12-29T01:57:24.908Z,1027.08
2018-12-29T01:58:24.757Z,1027.10
2018-12-29T01:59:24.745Z,1027.12
2018-12-29T02:00:24.738Z,1027.20
2018-12-29T02:01:25.378Z,1027.21
2018-12-29T02:02:24.800Z,1027.19
2018-12-29T02:03:24.706Z,1027.20
2018-12-29T02:04:24.691Z,1027.27
2018-12-29T02:05:24.691Z,1027.28
2018-12-29T02:06:24.681Z,1027.28
2018-12-29T02:07:24.909Z,1027.36
2018-12-29T02:08:24.649Z,1027.38
2018-12-29T02:09:24.646Z,1027.33
2018-12-29T02:10:25.378Z,1027.35
2018-12-29T02:11:24.619Z,1027.39
2018-12-29T02:12:24.632Z,1027.38
2018-12-29T02:13:25.379Z,1027.36
2018-12-29T02:14:24.579Z,1027.37
2018-12-29T02:15:24.985Z,1027.37
2018-12-29T02:16:24.564Z,1027.36
2018-12-29T02:17:24.562Z,1027.32
2018-12-29T02:18:25.393Z,1027.35
2018-12-29T02:19:25.423Z,1027.32
2018-12-29T02:20:24.517Z,1027.35
2018-12-29T02:21:24.506Z,1027.38
2018-12-29T02:22:24.508Z,1027.37
2018-12-29T02:23:25.397Z,1027.31
2018-12-29T02:24:24.478Z,1027.32
2018-12-29T02:25:25.385Z,1027.33
2018-12-29T02:26:24.450Z,1027.35
2018-12-29T02:27:24.556Z,1027.42
2018-12-29T02:28:24.500Z,1027.40
2018-12-29T02:29:24.416Z,1027.39
2018-12-29T02:30:25.382Z,1027.37
2018-12-29T02:31:24.395Z,1027.40
2018-12-29T02:32:24.383Z,1027.40
2018-12-29T02:33:24.414Z,1027.43
2018-12-29T02:34:24.364Z,1027.40
2018-12-29T02:35:24.887Z,1027.41
2018-12-29T02:36:24.877Z,1027.44
2018-12-29T02:37:24.326Z,1027.44
2018-12-29T02:38:24.415Z,1027.46
2018-12-29T02:39:24.307Z,1027.45
2018-12-29T02:40:24.882Z,1027.46
2018-12-29T02:41:24.284Z,1027.42
2018-12-29T02:42:24.272Z,1027.46
2018-12-29T02:43:24.420Z,1027.47
2018-12-29T02:44:24.262Z,1027.43
2018-12-29T02:45:32.848Z,1027.44
2018-12-29T02:46:24.228Z,1027.51
2018-12-29T02:47:24.886Z,1027.54
2018-12-29T02:48:24.239Z,1027.53
2018-12-29T02:49:24.878Z,1027.55
2018-12-29T02:50:24.190Z,1027.51
2018-12-29T02:51:24.176Z,1027.62
2018-12-29T02:52:24.882Z,1027.50
2018-12-29T02:53:24.205Z,1027.55
2018-12-29T02:54:24.140Z,1027.56
2018-12-29T02:55:24.129Z,1027.53
2018-12-29T02:56:24.135Z,1027.60
2018-12-29T02:57:24.116Z,1027.61
2018-12-29T02:58:24.169Z,1027.63
2018-12-29T02:59:24.088Z,1027.62
2018-12-29T03:00:24.089Z,1027.61
2018-12-29T03:01:24.898Z,1027.60
2018-12-29T03:02:24.060Z,1027.59
2018-12-29T03:03:24.048Z,1027.63
2018-12-29T03:04:24.423Z,1027.54
2018-12-29T03:05:24.029Z,1027.51
2018-12-29T03:06:24.886Z,1027.57
2018-12-29T03:07:23.999Z,1027.56
2018-12-29T03:08:23.988Z,1027.53
2018-12-29T03:09:23.999Z,1027.48
2018-12-29T03:10:23.965Z,1027.50
2018-12-29T03:11:23.964Z,1027.44
2018-12-29T03:12:23.943Z,1027.45
2018-12-29T03:13:23.945Z,1027.38
2018-12-29T03:14:23.932Z,1027.41
2018-12-29T03:15:24.884Z,1027.38
2018-12-29T03:16:24.896Z,1027.38
2018-12-29T03:17:23.888Z,1027.46
2018-12-29T03:18:23.900Z,1027.42
2018-12-29T03:19:23.898Z,1027.43
2018-12-29T03:20:23.859Z,1027.44
2018-12-29T03:21:24.387Z,1027.45
2018-12-29T03:22:23.840Z,1027.44
2018-12-29T03:23:23.833Z,1027.40
2018-12-29T03:24:23.822Z,1027.45
2018-12-29T03:25:23.804Z,1027.45
2018-12-29T03:26:23.787Z,1027.42
2018-12-29T03:27:24.382Z,1027.42
2018-12-29T03:28:23.776Z,1027.46
2018-12-29T03:29:23.897Z,1027.44
2018-12-29T03:30:23.764Z,1027.40
2018-12-29T03:31:23.739Z,1027.40
2018-12-29T03:32:24.386Z,1027.45
2018-12-29T03:33:24.399Z,1027.42
2018-12-29T03:34:23.712Z,1027.38
2018-12-29T03:35:24.393Z,1027.30
2018-12-29T03:36:23.710Z,1027.32
2018-12-29T03:37:23.691Z,1027.29
2018-12-29T03:38:23.674Z,1027.26
2018-12-29T03:39:23.677Z,1027.27
2018-12-29T03:40:23.634Z,1027.27
2018-12-29T03:41:24.384Z,1027.21
2018-12-29T03:42:24.381Z,1027.24
2018-12-29T03:43:23.622Z,1027.22
2018-12-29T03:44:23.899Z,1027.23
2018-12-29T03:45:23.594Z,1027.22
2018-12-29T03:46:24.390Z,1027.20
2018-12-29T03:47:24.385Z,1027.20
2018-12-29T03:48:23.560Z,1027.13
2018-12-29T03:49:23.558Z,1027.10
2018-12-29T03:50:23.523Z,1027.06
2018-12-29T03:51:23.514Z,1027.07
2018-12-29T03:52:23.509Z,1027.06
2018-12-29T03:53:24.415Z,1027.02
2018-12-29T03:54:23.485Z,1026.97
2018-12-29T03:55:23.485Z,1026.94
2018-12-29T03:56:23.454Z,1027.02
2018-12-29T03:57:23.450Z,1027.03
2018-12-29T03:58:23.440Z,1026.95
2018-12-29T03:59:23.426Z,1026.92
2018-12-29T04:00:23.902Z,1026.89
2018-12-29T04:01:24.384Z,1026.90
2018-12-29T04:02:23.389Z,1026.95
2018-12-29T04:03:23.888Z,1026.94
2018-12-29T04:04:23.374Z,1026.97
2018-12-29T04:05:23.906Z,1026.99
2018-12-29T04:06:23.348Z,1027.02
2018-12-29T04:07:23.341Z,1026.97
2018-12-29T04:08:23.325Z,1026.93
2018-12-29T04:09:23.892Z,1026.97
2018-12-29T04:10:23.309Z,1026.95
2018-12-29T04:11:23.304Z,1026.94
2018-12-29T04:12:23.290Z,1026.94
2018-12-29T04:13:23.270Z,1026.94
2018-12-29T04:14:23.259Z,1026.95
2018-12-29T04:15:23.279Z,1026.92
2018-12-29T04:16:23.887Z,1026.88
2018-12-29T04:17:23.239Z,1026.89
2018-12-29T04:18:23.223Z,1026.96
2018-12-29T04:19:23.212Z,1026.89
2018-12-29T04:20:23.279Z,1026.89
2018-12-29T04:21:23.184Z,1026.94
2018-12-29T04:22:23.176Z,1026.84
2018-12-29T04:23:23.162Z,1026.89
2018-12-29T04:24:23.150Z,1026.91
2018-12-29T04:25:23.414Z,1026.91
2018-12-29T04:26:23.126Z,1026.90
2018-12-29T04:27:23.133Z,1026.87
2018-12-29T04:28:23.923Z,1026.86
2018-12-29T04:29:23.885Z,1026.81
2018-12-29T04:30:23.401Z,1026.85
2018-12-29T04:31:23.068Z,1026.85
2018-12-29T04:32:23.888Z,1026.88
2018-12-29T04:33:23.887Z,1026.84
2018-12-29T04:34:23.055Z,1026.82
2018-12-29T04:35:23.063Z,1026.85
2018-12-29T04:36:23.076Z,1026.82
2018-12-29T04:37:23.001Z,1026.79
2018-12-29T04:38:22.999Z,1026.75
2018-12-29T04:39:23.898Z,1026.78
2018-12-29T04:40:23.897Z,1026.77
2018-12-29T04:41:23.001Z,1026.76
2018-12-29T04:42:22.950Z,1026.78
2018-12-29T04:43:23.885Z,1026.72
2018-12-29T04:44:22.945Z,1026.80
2018-12-29T04:45:22.930Z,1026.76
2018-12-29T04:46:23.394Z,1026.76
2018-12-29T04:47:22.895Z,1026.78
2018-12-29T04:48:22.884Z,1026.80
2018-12-29T04:49:23.406Z,1026.76
2018-12-29T04:50:22.860Z,1026.73
2018-12-29T04:51:22.870Z,1026.74
2018-12-29T04:52:22.839Z,1026.73
2018-12-29T04:53:22.825Z,1026.71
2018-12-29T04:54:22.829Z,1026.71
2018-12-29T04:55:22.811Z,1026.68
2018-12-29T04:56:22.910Z,1026.62
2018-12-29T04:57:23.387Z,1026.64
2018-12-29T04:58:22.779Z,1026.71
2018-12-29T04:59:22.774Z,1026.65
2018-12-29T05:00:22.751Z,1026.66
2018-12-29T05:01:27.903Z,1026.55
2018-12-29T05:02:23.388Z,1026.65
2018-12-29T05:03:22.721Z,1026.61
2018-12-29T05:04:22.906Z,1026.65
2018-12-29T05:05:23.394Z,1026.64
2018-12-29T05:06:23.404Z,1026.62
2018-12-29T05:07:22.673Z,1026.68
2018-12-29T05:08:22.680Z,1026.66
2018-12-29T05:09:22.902Z,1026.63
2018-12-29T05:10:22.643Z,1026.63
2018-12-29T05:11:22.634Z,1026.60
2018-12-29T05:12:22.641Z,1026.65
2018-12-29T05:13:22.623Z,1026.68
2018-12-29T05:14:22.897Z,1026.63
2018-12-29T05:15:22.595Z,1026.65
2018-12-29T05:16:23.392Z,1026.63
2018-12-29T05:17:22.578Z,1026.74
2018-12-29T05:18:22.564Z,1026.78
2018-12-29T05:19:22.910Z,1026.66
2018-12-29T05:20:22.549Z,1026.73
2018-12-29T05:21:22.523Z,1026.65
2018-12-29T05:22:23.411Z,1026.69
2018-12-29T05:23:23.403Z,1026.77
2018-12-29T05:24:22.903Z,1026.77
2018-12-29T05:25:22.474Z,1026.69
2018-12-29T05:26:22.465Z,1026.69
2018-12-29T05:27:22.498Z,1026.65
2018-12-29T05:28:22.441Z,1026.65
2018-12-29T05:29:22.907Z,1026.62
2018-12-29T05:30:22.424Z,1026.66
2018-12-29T05:31:23.389Z,1026.74
2018-12-29T05:32:23.405Z,1026.69
2018-12-29T05:33:22.400Z,1026.74
2018-12-29T05:34:22.402Z,1026.77
2018-12-29T05:35:22.366Z,1026.79
2018-12-29T05:36:22.889Z,1026.83
2018-12-29T05:37:22.349Z,1026.88
2018-12-29T05:38:22.333Z,1026.84
2018-12-29T05:39:22.338Z,1026.93
2018-12-29T05:40:22.313Z,1026.96
2018-12-29T05:41:22.301Z,1026.94
2018-12-29T05:42:22.393Z,1026.98
2018-12-29T05:43:22.279Z,1027.04
2018-12-29T05:44:22.415Z,1027.06
2018-12-29T05:45:22.256Z,1026.98
2018-12-29T05:46:22.245Z,1027.10
2018-12-29T05:47:22.252Z,1027.09
2018-12-29T05:48:22.895Z,1027.13
2018-12-29T05:49:22.241Z,1027.16
2018-12-29T05:50:22.199Z,1027.16
2018-12-29T05:51:22.189Z,1027.16
2018-12-29T05:52:22.184Z,1027.21
2018-12-29T05:53:22.935Z,1027.19
2018-12-29T05:54:22.402Z,1027.23
2018-12-29T05:55:22.149Z,1027.26
2018-12-29T05:56:22.134Z,1027.24
2018-12-29T05:57:22.132Z,1027.30
2018-12-29T05:58:22.932Z,1027.28
2018-12-29T05:59:22.403Z,1027.24
2018-12-29T06:00:22.096Z,1027.23
2018-12-29T06:01:22.080Z,1027.24
2018-12-29T06:02:22.070Z,1027.25
2018-12-29T06:03:22.095Z,1027.26
2018-12-29T06:04:22.067Z,1027.27
2018-12-29T06:05:22.056Z,1027.29
2018-12-29T06:06:22.041Z,1027.20
2018-12-29T06:07:22.021Z,1027.28
2018-12-29T06:08:22.015Z,1027.35
2018-12-29T06:09:22.027Z,1027.33
2018-12-29T06:10:21.988Z,1027.25
2018-12-29T06:11:21.973Z,1027.30
2018-12-29T06:12:21.964Z,1027.34
2018-12-29T06:13:22.897Z,1027.35
2018-12-29T06:14:21.955Z,1027.43
2018-12-29T06:15:21.925Z,1027.35
2018-12-29T06:16:27.682Z,1027.49
2018-12-29T06:17:21.903Z,1027.34
2018-12-29T06:18:21.894Z,1027.33
2018-12-29T06:19:21.903Z,1027.30
2018-12-29T06:20:21.872Z,1027.32
2018-12-29T06:21:22.392Z,1027.27
2018-12-29T06:22:21.849Z,1027.21
2018-12-29T06:23:21.837Z,1027.15
2018-12-29T06:24:21.851Z,1027.21
2018-12-29T06:25:21.817Z,1027.30
2018-12-29T06:26:21.839Z,1027.27
2018-12-29T06:27:21.808Z,1027.19
2018-12-29T06:28:22.403Z,1027.23
2018-12-29T06:29:21.792Z,1027.30
2018-12-29T06:30:21.759Z,1027.24
2018-12-29T06:31:21.746Z,1027.24
2018-12-29T06:32:21.741Z,1027.17
2018-12-29T06:33:22.392Z,1027.20
2018-12-29T06:34:21.752Z,1027.19
2018-12-29T06:35:21.712Z,1027.20
2018-12-29T06:36:21.695Z,1027.21
2018-12-29T06:37:21.684Z,1027.26
2018-12-29T06:38:22.396Z,1027.20
2018-12-29T06:39:21.664Z,1027.12
2018-12-29T06:40:22.455Z,1027.22
2018-12-29T06:41:21.639Z,1027.29
2018-12-29T06:42:21.628Z,1027.23
2018-12-29T06:43:21.622Z,1027.22
2018-12-29T06:44:22.398Z,1027.25
2018-12-29T06:45:21.908Z,1027.20
2018-12-29T06:46:21.584Z,1027.21
2018-12-29T06:47:22.389Z,1027.30
2018-12-29T06:48:21.563Z,1027.29
2018-12-29T06:49:21.551Z,1027.30
2018-12-29T06:50:21.911Z,1027.29
2018-12-29T06:51:21.536Z,1027.33
2018-12-29T06:52:21.518Z,1027.27
2018-12-29T06:53:21.508Z,1027.29
2018-12-29T06:54:21.499Z,1027.31
2018-12-29T06:55:21.501Z,1027.28
2018-12-29T06:56:21.483Z,1027.33
2018-12-29T06:57:22.392Z,1027.32
2018-12-29T06:58:21.452Z,1027.28
2018-12-29T06:59:21.439Z,1027.33
2018-12-29T07:00:21.458Z,1027.31
2018-12-29T07:01:21.421Z,1027.36
2018-12-29T07:02:21.411Z,1027.38
2018-12-29T07:03:21.394Z,1027.31
2018-12-29T07:04:21.385Z,1027.34
2018-12-29T07:05:21.388Z,1027.30
2018-12-29T07:06:21.904Z,1027.27
2018-12-29T07:07:21.903Z,1027.32
2018-12-29T07:08:21.361Z,1027.31
2018-12-29T07:09:21.335Z,1027.32
2018-12-29T07:10:21.335Z,1027.34
2018-12-29T07:11:21.307Z,1027.35
2018-12-29T07:12:21.896Z,1027.31
2018-12-29T07:13:21.282Z,1027.38
2018-12-29T07:14:21.277Z,1027.41
2018-12-29T07:15:21.414Z,1027.39
2018-12-29T07:16:21.251Z,1027.41
2018-12-29T07:17:21.894Z,1027.42
2018-12-29T07:18:21.896Z,1027.33
2018-12-29T07:19:21.904Z,1027.43
2018-12-29T07:20:21.252Z,1027.43
2018-12-29T07:21:21.194Z,1027.43
2018-12-29T07:22:21.895Z,1027.47
2018-12-29T07:23:21.176Z,1027.49
2018-12-29T07:24:21.168Z,1027.41
2018-12-29T07:25:21.192Z,1027.42
2018-12-29T07:26:21.204Z,1027.42
2018-12-29T07:27:21.132Z,1027.43
2018-12-29T07:28:21.128Z,1027.39
2018-12-29T07:29:21.901Z,1027.52
2018-12-29T07:30:21.419Z,1027.50
2018-12-29T07:31:21.116Z,1027.51
2018-12-29T07:32:21.893Z,1027.55
2018-12-29T07:33:21.066Z,1027.55
2018-12-29T07:34:21.053Z,1027.59
2018-12-29T07:35:21.412Z,1027.51
2018-12-29T07:36:21.113Z,1027.57
2018-12-29T07:37:21.020Z,1027.49
2018-12-29T07:38:21.008Z,1027.57
2018-12-29T07:39:21.001Z,1027.52
2018-12-29T07:40:21.411Z,1027.57
2018-12-29T07:41:21.928Z,1027.65
2018-12-29T07:42:21.034Z,1027.54
2018-12-29T07:43:20.956Z,1027.54
2018-12-29T07:44:20.942Z,1027.52
2018-12-29T07:45:20.949Z,1027.51
2018-12-29T07:46:21.908Z,1027.53
2018-12-29T07:47:21.898Z,1027.45
2018-12-29T07:48:21.897Z,1027.45
2018-12-29T07:49:20.890Z,1027.45
2018-12-29T07:50:20.930Z,1027.41
2018-12-29T07:51:20.872Z,1027.46
2018-12-29T07:52:21.395Z,1027.41
2018-12-29T07:53:20.849Z,1027.38
2018-12-29T07:54:20.835Z,1027.45
2018-12-29T07:55:20.845Z,1027.43
2018-12-29T07:56:20.829Z,1027.44
2018-12-29T07:57:20.799Z,1027.37
2018-12-29T07:58:21.396Z,1027.45
2018-12-29T07:59:20.775Z,1027.45
2018-12-29T08:00:20.909Z,1027.51
2018-12-29T08:01:20.780Z,1027.46
2018-12-29T08:02:20.746Z,1027.48
2018-12-29T08:03:20.737Z,1027.46
2018-12-29T08:04:20.733Z,1027.41
2018-12-29T08:05:20.737Z,1027.40
2018-12-29T08:06:20.748Z,1027.38
2018-12-29T08:07:20.694Z,1027.38
2018-12-29T08:08:20.680Z,1027.42
2018-12-29T08:09:21.399Z,1027.37
2018-12-29T08:10:20.678Z,1027.40
2018-12-29T08:11:21.397Z,1027.42
2018-12-29T08:12:20.637Z,1027.42
2018-12-29T08:13:20.624Z,1027.45
2018-12-29T08:14:20.615Z,1027.39
2018-12-29T08:15:20.920Z,1027.43
2018-12-29T08:16:20.605Z,1027.41
2018-12-29T08:17:20.581Z,1027.34
2018-12-29T08:18:20.571Z,1027.37
2018-12-29T08:19:20.560Z,1027.33
2018-12-29T08:20:20.567Z,1027.30
2018-12-29T08:21:21.396Z,1027.34
2018-12-29T08:22:21.396Z,1027.28
2018-12-29T08:23:20.517Z,1027.26
2018-12-29T08:24:21.400Z,1027.30
2018-12-29T08:25:20.513Z,1027.33
2018-12-29T08:26:21.398Z,1027.31
2018-12-29T08:27:20.536Z,1027.25
2018-12-29T08:28:20.460Z,1027.26
2018-12-29T08:29:21.397Z,1027.27
2018-12-29T08:30:20.452Z,1027.19
2018-12-29T08:31:20.427Z,1027.24
2018-12-29T08:32:21.400Z,1027.20
2018-12-29T08:33:20.402Z,1027.19
2018-12-29T08:34:20.393Z,1027.21
2018-12-29T08:35:20.396Z,1027.18
2018-12-29T08:36:20.370Z,1027.11
2018-12-29T08:37:20.361Z,1027.12
2018-12-29T08:38:20.906Z,1027.11
2018-12-29T08:39:20.341Z,1027.14
2018-12-29T08:40:20.362Z,1027.14
2018-12-29T08:41:20.312Z,1027.09
2018-12-29T08:42:20.305Z,1027.14
2018-12-29T08:43:20.299Z,1026.98
2018-12-29T08:44:20.288Z,1027.10
2018-12-29T08:45:20.275Z,1027.11
2018-12-29T08:46:20.419Z,1027.05
2018-12-29T08:47:20.248Z,1027.07
2018-12-29T08:48:20.239Z,1027.09
2018-12-29T08:49:20.899Z,1027.12
2018-12-29T08:50:20.229Z,1027.09
2018-12-29T08:51:20.227Z,1027.10
2018-12-29T08:52:20.195Z,1027.08
2018-12-29T08:53:20.899Z,1027.06
2018-12-29T08:54:20.173Z,1027.06
2018-12-29T08:55:20.162Z,1027.01
2018-12-29T08:56:20.412Z,1027.01
2018-12-29T08:57:20.139Z,1027.04
2018-12-29T08:58:20.135Z,1027.00
2018-12-29T08:59:20.117Z,1026.95
2018-12-29T09:00:20.111Z,1027.00
2018-12-29T09:01:20.112Z,1026.99
2018-12-29T09:02:20.091Z,1026.98
2018-12-29T09:03:20.074Z,1027.04
2018-12-29T09:04:20.064Z,1026.95
2018-12-29T09:05:20.899Z,1027.01
2018-12-29T09:06:20.069Z,1027.00
2018-12-29T09:07:20.037Z,1027.09
2018-12-29T09:08:20.050Z,1027.11
2018-12-29T09:09:20.008Z,1027.11
2018-12-29T09:10:20.000Z,1027.10
2018-12-29T09:11:20.066Z,1027.11
2018-12-29T09:12:20.923Z,1027.12
2018-12-29T09:13:20.905Z,1027.09
2018-12-29T09:14:19.949Z,1027.15
2018-12-29T09:15:19.948Z,1027.14
2018-12-29T09:16:19.991Z,1027.09
2018-12-29T09:17:19.928Z,1027.08
2018-12-29T09:18:19.913Z,1027.05
2018-12-29T09:19:26.986Z,1027.08
2018-12-29T09:20:19.888Z,1027.09
2018-12-29T09:21:19.918Z,1027.09
2018-12-29T09:22:20.404Z,1027.18
2018-12-29T09:23:19.859Z,1027.10
2018-12-29T09:24:19.851Z,1027.13
2018-12-29T09:25:20.409Z,1027.10
2018-12-29T09:26:19.842Z,1027.17
2018-12-29T09:27:19.812Z,1027.14
2018-12-29T09:28:20.406Z,1027.14
2018-12-29T09:29:20.410Z,1027.14
2018-12-29T09:30:19.783Z,1027.04
2018-12-29T09:31:19.786Z,1027.05
2018-12-29T09:32:19.758Z,1027.04
2018-12-29T09:33:20.405Z,1027.05
2018-12-29T09:34:22.598Z,1027.01
2018-12-29T09:35:19.728Z,1026.99
2018-12-29T09:36:21.343Z,1027.00
2018-12-29T09:37:19.704Z,1026.99
2018-12-29T09:38:19.710Z,1026.86
2018-12-29T09:39:19.681Z,1026.96
2018-12-29T09:40:19.673Z,1026.93
2018-12-29T09:41:19.674Z,1026.93
2018-12-29T09:42:20.403Z,1026.88
2018-12-29T09:43:19.636Z,1026.77
2018-12-29T09:44:19.633Z,1026.83
2018-12-29T09:45:20.409Z,1026.79
2018-12-29T09:46:19.922Z,1026.84
2018-12-29T09:47:19.995Z,1026.79
2018-12-29T09:48:19.599Z,1026.86
2018-12-29T09:49:19.574Z,1026.70
2018-12-29T09:50:19.564Z,1026.65
2018-12-29T09:51:19.946Z,1026.65
2018-12-29T09:52:19.607Z,1026.65
2018-12-29T09:53:19.552Z,1026.59
2018-12-29T09:54:19.529Z,1026.56
2018-12-29T09:55:19.509Z,1026.48
2018-12-29T09:56:19.505Z,1026.43
2018-12-29T09:57:20.406Z,1026.45
2018-12-29T09:58:19.480Z,1026.37
2018-12-29T09:59:19.472Z,1026.30
2018-12-29T10:00:19.454Z,1026.29
2018-12-29T10:01:19.465Z,1026.28
2018-12-29T10:02:19.427Z,1026.36
2018-12-29T10:03:19.419Z,1026.29
2018-12-29T10:04:19.428Z,1026.26
2018-12-29T10:05:19.394Z,1026.24
2018-12-29T10:06:19.419Z,1026.22
2018-12-29T10:07:19.373Z,1026.16
2018-12-29T10:08:19.901Z,1026.17
2018-12-29T10:09:19.367Z,1026.15
2018-12-29T10:10:19.339Z,1026.18
2018-12-29T10:11:19.350Z,1026.18
2018-12-29T10:12:19.317Z,1026.08
2018-12-29T10:13:19.308Z,1026.16
2018-12-29T10:14:19.969Z,1026.18
2018-12-29T10:15:19.281Z,1026.14
2018-12-29T10:16:19.292Z,1026.09
2018-12-29T10:17:26.769Z,1026.01
2018-12-29T10:18:19.251Z,1026.05
2018-12-29T10:19:19.906Z,1025.96
2018-12-29T10:20:19.233Z,1026.06
2018-12-29T10:21:19.231Z,1026.02
2018-12-29T10:22:19.220Z,1025.97
2018-12-29T10:23:19.913Z,1025.96
2018-12-29T10:24:19.190Z,1025.98
2018-12-29T10:25:19.925Z,1025.93
2018-12-29T10:26:19.194Z,1025.97
2018-12-29T10:27:19.168Z,1025.94
2018-12-29T10:28:19.914Z,1025.93
2018-12-29T10:29:19.136Z,1025.91
2018-12-29T10:30:19.118Z,1025.89
2018-12-29T10:31:19.125Z,1025.90
2018-12-29T10:32:19.094Z,1025.95
2018-12-29T10:33:19.086Z,1026.00
2018-12-29T10:34:19.129Z,1025.93
2018-12-29T10:35:19.059Z,1025.97
2018-12-29T10:36:19.071Z,1025.98
2018-12-29T10:37:19.054Z,1026.00
2018-12-29T10:38:19.039Z,1025.95
2018-12-29T10:39:20.155Z,1025.87
2018-12-29T10:40:19.060Z,1025.89
2018-12-29T10:41:19.026Z,1025.95
2018-12-29T10:42:18.986Z,1025.93
2018-12-29T10:43:19.908Z,1025.91
2018-12-29T10:44:18.986Z,1025.94
2018-12-29T10:45:18.982Z,1025.98
2018-12-29T10:46:19.419Z,1026.03
2018-12-29T10:47:19.909Z,1026.09
2018-12-29T10:48:18.917Z,1026.09
2018-12-29T10:49:18.911Z,1026.15
2018-12-29T10:50:18.905Z,1026.14
2018-12-29T10:51:18.914Z,1026.15
2018-12-29T10:52:18.895Z,1026.15
2018-12-29T10:53:18.866Z,1026.08
2018-12-29T10:54:19.406Z,1026.08
2018-12-29T10:55:18.904Z,1026.08
2018-12-29T10:56:18.850Z,1026.05
2018-12-29T10:57:18.838Z,1026.05
2018-12-29T10:58:19.426Z,1026.00
2018-12-29T10:59:18.800Z,1025.98
2018-12-29T11:00:18.832Z,1025.91
2018-12-29T11:01:19.409Z,1025.87
2018-12-29T11:02:18.918Z,1025.83
2018-12-29T11:03:18.755Z,1025.79
2018-12-29T11:04:19.489Z,1025.78
2018-12-29T11:05:19.431Z,1025.66
2018-12-29T11:06:19.404Z,1025.65
2018-12-29T11:07:18.734Z,1025.55
2018-12-29T11:08:18.700Z,1025.46
2018-12-29T11:09:18.691Z,1025.43
2018-12-29T11:10:18.679Z,1025.41
2018-12-29T11:11:18.678Z,1025.41
2018-12-29T11:12:18.920Z,1025.33
2018-12-29T11:13:19.426Z,1025.32
2018-12-29T11:14:18.638Z,1025.24
2018-12-29T11:15:18.622Z,1025.28
2018-12-29T11:16:18.615Z,1025.29
2018-12-29T11:17:18.921Z,1025.28
2018-12-29T11:18:18.589Z,1025.22
2018-12-29T11:19:19.405Z,1025.26
2018-12-29T11:20:18.580Z,1025.27
2018-12-29T11:21:18.564Z,1025.29
2018-12-29T11:22:18.565Z,1025.36
2018-12-29T11:23:18.539Z,1025.33
2018-12-29T11:24:19.408Z,1025.31
2018-12-29T11:25:18.521Z,1025.41
2018-12-29T11:26:18.505Z,1025.43
2018-12-29T11:27:18.512Z,1025.49
2018-12-29T11:28:18.479Z,1025.57
2018-12-29T11:29:19.425Z,1025.56
2018-12-29T11:30:18.456Z,1025.51
2018-12-29T11:31:18.446Z,1025.50
2018-12-29T11:32:18.926Z,1025.52
2018-12-29T11:33:18.524Z,1025.46
2018-12-29T11:34:18.427Z,1025.38
2018-12-29T11:35:18.405Z,1025.36
2018-12-29T11:36:18.405Z,1025.30
2018-12-29T11:37:18.406Z,1025.26
2018-12-29T11:38:18.373Z,1025.22
2018-12-29T11:39:18.366Z,1025.27
2018-12-29T11:40:18.362Z,1025.24
2018-12-29T11:41:18.341Z,1025.29
2018-12-29T11:42:18.372Z,1025.21
2018-12-29T11:43:18.327Z,1025.27
2018-12-29T11:44:18.912Z,1025.24
2018-12-29T11:45:18.304Z,1025.22
2018-12-29T11:46:18.289Z,1025.15
2018-12-29T11:47:18.296Z,1025.11
2018-12-29T11:48:18.921Z,1025.06
2018-12-29T11:49:18.407Z,1025.02
2018-12-29T11:50:18.244Z,1024.93
2018-12-29T11:51:18.232Z,1024.94
2018-12-29T11:52:18.264Z,1024.87
2018-12-29T11:53:18.210Z,1024.84
2018-12-29T11:54:18.195Z,1024.82
2018-12-29T11:55:18.190Z,1024.73
2018-12-29T11:56:18.197Z,1024.75
2018-12-29T11:57:18.452Z,1024.68
2018-12-29T11:58:18.927Z,1024.76
2018-12-29T11:59:18.152Z,1024.71
2018-12-29T12:00:18.135Z,1024.66
2018-12-29T12:01:18.135Z,1024.67
2018-12-29T12:02:24.415Z,1024.75
2018-12-29T12:03:18.102Z,1024.71
2018-12-29T12:04:18.086Z,1024.78
2018-12-29T12:05:18.100Z,1024.92